Time;durP1;ratioP1;P1;durP2;ratioP2;P2;SDS_P1;SDS_P2;PMS_P1;PMS_P2;Temp;Humidity;BMP_temperature;BMP_pressure;BME280_temperature;BME280_humidity;BME280_pressure;Samples;Min_cycle;Max_cycle;Signal;HPM_P1;HPM_P2
2023/12/19 00:00:53;;;;;;;37.00;23.67;;;0.60;99.90;;;;;;4906617;29;20029;-77
2023/12/19 00:03:20;;;;;;;38.17;23.77;;;0.60;99.90;;;;;;4907109;29;20041;-77
2023/12/19 00:05:45;;;;;;;38.38;23.65;;;0.60;99.90;;;;;;4906537;29;20315;-77
2023/12/19 00:08:14;;;;;;;37.60;23.92;;;0.60;99.90;;;;;;4905383;29;20037;-77
2023/12/19 00:10:42;;;;;;;35.25;22.45;;;0.70;99.90;;;;;;4888639;29;20072;-77
2023/12/19 00:13:16;;;;;;;34.55;21.83;;;0.60;99.90;;;;;;4886249;29;20056;-77
2023/12/19 00:15:42;;;;;;;33.35;22.67;;;0.60;99.90;;;;;;4870601;29;20048;-77
2023/12/19 00:18:17;;;;;;;38.47;22.77;;;0.60;99.90;;;;;;4887067;29;20219;-76
2023/12/19 00:20:42;;;;;;;33.42;21.90;;;0.60;99.90;;;;;;4887573;29;20068;-77
2023/12/19 00:23:08;;;;;;;40.13;24.83;;;0.60;99.90;;;;;;4888125;29;20036;-77
2023/12/19 00:25:59;;;;;;;37.63;24.92;;;0.50;99.90;;;;;;4890538;29;20029;-78
2023/12/19 00:28:51;;;;;;;40.83;23.92;;;0.50;99.90;;;;;;4906828;29;20099;-77
2023/12/19 00:31:23;;;;;;;38.45;23.55;;;0.50;99.90;;;;;;4899362;29;20337;-77
2023/12/19 00:33:51;;;;;;;34.60;23.08;;;0.60;99.90;;;;;;4906068;29;20256;-76
2023/12/19 00:36:26;;;;;;;36.55;22.73;;;0.60;99.90;;;;;;4906797;29;20319;-76
2023/12/19 00:38:58;;;;;;;33.33;21.88;;;0.60;99.90;;;;;;4906557;29;20056;-76
2023/12/19 00:41:24;;;;;;;31.98;19.73;;;0.70;99.90;;;;;;4910116;29;20268;-77
2023/12/19 00:43:56;;;;;;;29.67;19.33;;;0.70;99.90;;;;;;4902179;29;20017;-77
2023/12/19 00:46:21;;;;;;;28.25;18.13;;;0.80;99.90;;;;;;4891330;29;20028;-76
2023/12/19 00:48:56;;;;;;;26.42;17.42;;;0.90;99.90;;;;;;4890650;29;20312;-77
2023/12/19 00:51:23;;;;;;;28.23;17.65;;;0.90;99.90;;;;;;4890068;29;20289;-77
2023/12/19 00:53:58;;;;;;;25.90;16.85;;;1.00;99.90;;;;;;4891920;29;20029;-78
2023/12/19 00:56:27;;;;;;;24.80;16.50;;;1.00;99.90;;;;;;4892740;29;20108;-76
2023/12/19 00:58:53;;;;;;;24.25;16.08;;;1.00;99.90;;;;;;4892981;29;20052;-76
2023/12/19 01:01:29;;;;;;;27.25;16.15;;;0.90;99.90;;;;;;4895922;29;20056;-77
2023/12/19 01:04:10;;;;;;;22.00;14.75;;;0.90;99.90;;;;;;4892397;29;20029;-78
2023/12/19 01:07:08;;;;;;;23.58;15.90;;;0.90;99.90;;;;;;4891740;29;20316;-79
2023/12/19 01:09:34;;;;;;;23.58;15.15;;;0.90;99.90;;;;;;4889754;29;20037;-76
2023/12/19 01:12:21;;;;;;;25.30;15.98;;;0.80;99.90;;;;;;4875141;29;20057;-76
2023/12/19 01:14:47;;;;;;;20.92;14.63;;;0.80;99.90;;;;;;4890710;29;20250;-77
2023/12/19 01:17:16;;;;;;;21.65;14.35;;;0.70;99.90;;;;;;4897616;29;20068;-77
2023/12/19 01:19:42;;;;;;;21.38;14.73;;;0.70;99.90;;;;;;4892553;29;20123;-77
2023/12/19 01:22:10;;;;;;;19.95;13.68;;;0.60;99.90;;;;;;4909264;29;20342;-77
2023/12/19 01:24:39;;;;;;;21.58;13.93;;;0.60;99.90;;;;;;4892115;29;20105;-77
2023/12/19 01:27:11;;;;;;;23.83;14.07;;;0.60;99.90;;;;;;4909521;29;20025;-79
2023/12/19 01:29:41;;;;;;;20.30;13.32;;;0.60;99.90;;;;;;4908854;29;20043;-78
2023/12/19 01:32:09;;;;;;;20.73;13.20;;;0.60;99.90;;;;;;4908187;29;20072;-78
2023/12/19 01:35:01;;;;;;;19.20;11.75;;;0.60;99.90;;;;;;4903777;29;20036;-77
2023/12/19 01:37:48;;;;;;;20.33;12.50;;;0.70;99.90;;;;;;4906452;29;20223;-77
2023/12/19 01:40:33;;;;;;;20.38;12.43;;;0.70;99.90;;;;;;4908813;29;20243;-77
2023/12/19 01:43:05;;;;;;;18.77;11.73;;;0.70;99.90;;;;;;4892728;29;20028;-78
2023/12/19 01:45:48;;;;;;;21.30;12.80;;;0.60;99.90;;;;;;4891478;29;20045;-77
2023/12/19 01:48:19;;;;;;;22.13;12.27;;;0.60;99.90;;;;;;4891824;29;20326;-78
2023/12/19 01:50:49;;;;;;;19.45;12.02;;;0.60;99.90;;;;;;4907163;29;20322;-78
2023/12/19 01:53:23;;;;;;;17.42;11.65;;;0.50;99.90;;;;;;4899681;29;20083;-77
2023/12/19 01:55:58;;;;;;;18.48;12.10;;;0.50;99.90;;;;;;4889863;29;20039;-77
2023/12/19 01:58:25;;;;;;;18.40;12.07;;;0.40;99.90;;;;;;4890269;29;20060;-77
2023/12/19 02:00:55;;;;;;;23.70;13.45;;;0.50;99.90;;;;;;4889585;29;20256;-78
2023/12/19 02:03:35;;;;;;;20.15;13.05;;;0.40;99.90;;;;;;4872195;29;20051;-78
2023/12/19 02:06:05;;;;;;;20.88;13.38;;;0.40;99.90;;;;;;4890105;29;20036;-77
2023/12/19 02:08:36;;;;;;;21.38;13.30;;;0.50;99.90;;;;;;4891113;29;20303;-77
2023/12/19 02:11:06;;;;;;;20.98;13.38;;;0.40;99.90;;;;;;4873592;29;20322;-78
2023/12/19 02:13:32;;;;;;;21.60;13.13;;;0.40;99.90;;;;;;4889648;29;20025;-77
2023/12/19 02:15:58;;;;;;;20.83;12.82;;;0.40;99.90;;;;;;4889731;29;20049;-77
2023/12/19 02:18:24;;;;;;;20.10;13.00;;;0.40;99.90;;;;;;4873135;29;20041;-77
2023/12/19 02:20:53;;;;;;;20.02;12.88;;;0.40;99.90;;;;;;4889233;29;20315;-78
2023/12/19 02:23:22;;;;;;;21.02;13.52;;;0.30;99.90;;;;;;4889988;29;20048;-77
2023/12/19 02:25:50;;;;;;;19.25;13.35;;;0.30;99.90;;;;;;4888774;29;20367;-77
2023/12/19 02:28:19;;;;;;;20.77;13.60;;;0.20;99.90;;;;;;4907816;29;20307;-77
2023/12/19 02:30:50;;;;;;;23.30;14.90;;;0.20;99.90;;;;;;4891590;29;20047;-77
2023/12/19 02:33:25;;;;;;;23.38;15.60;;;0.30;99.90;;;;;;4903684;29;20092;-77
2023/12/19 02:35:53;;;;;;;25.33;14.80;;;0.30;99.90;;;;;;4872475;29;20044;-77
2023/12/19 02:38:25;;;;;;;24.70;13.55;;;0.30;99.90;;;;;;4889624;29;20223;-78
2023/12/19 02:40:53;;;;;;;23.15;13.75;;;0.30;99.90;;;;;;4888826;29;20132;-77
2023/12/19 02:43:20;;;;;;;22.90;14.10;;;0.40;99.90;;;;;;4872868;29;20072;-77
2023/12/19 02:46:01;;;;;;;21.98;13.93;;;0.30;99.90;;;;;;4888839;29;20032;-77
2023/12/19 02:48:27;;;;;;;21.23;14.00;;;0.30;99.90;;;;;;4889570;29;20116;-76
2023/12/19 02:50:54;;;;;;;19.63;13.40;;;0.30;99.90;;;;;;4898095;29;20201;-76
2023/12/19 02:53:29;;;;;;;22.38;12.63;;;0.30;99.90;;;;;;4887640;29;20064;-77
2023/12/19 02:56:07;;;;;;;21.73;13.98;;;0.20;99.90;;;;;;4890257;29;20048;-78
2023/12/19 02:58:33;;;;;;;21.35;14.50;;;0.20;99.90;;;;;;4907561;29;20256;-77
2023/12/19 03:01:08;;;;;;;22.77;13.40;;;0.20;99.90;;;;;;4890792;29;20056;-78
2023/12/19 03:03:38;;;;;;;21.23;13.07;;;0.10;99.90;;;;;;4907024;29;20033;-78
2023/12/19 03:06:07;;;;;;;23.70;13.48;;;0.10;99.90;;;;;;4907853;29;20032;-78
2023/12/19 03:09:06;;;;;;;20.85;13.60;;;0.00;99.90;;;;;;4910715;29;20032;-77
2023/12/19 03:12:01;;;;;;;21.58;13.70;;;0.00;99.90;;;;;;4885375;29;20071;-77
2023/12/19 03:14:42;;;;;;;23.00;14.30;;;0.00;99.90;;;;;;4888847;29;20320;-78
2023/12/19 03:17:20;;;;;;;20.65;13.15;;;0.00;99.90;;;;;;4889165;29;20085;-77
2023/12/19 03:19:52;;;;;;;27.88;15.02;;;0.00;99.90;;;;;;4871517;29;20041;-77
2023/12/19 03:22:41;;;;;;;21.48;14.07;;;0.00;99.90;;;;;;4887771;29;20041;-78
2023/12/19 03:25:09;;;;;;;21.42;14.90;;;0.00;99.90;;;;;;4888783;29;20036;-76
2023/12/19 03:27:44;;;;;;;20.50;13.73;;;0.00;99.90;;;;;;4901948;29;20043;-77
2023/12/19 03:31:05;;;;;;;23.92;13.93;;;0.00;99.90;;;;;;4907474;29;20051;-76
2023/12/19 03:33:54;;;;;;;22.55;14.25;;;0.00;99.90;;;;;;4903900;29;20111;-78
2023/12/19 03:36:28;;;;;;;21.67;14.05;;;0.00;99.90;;;;;;4849851;29;20042;-78
2023/12/19 03:41:52;;;;;;;22.52;14.40;;;0.00;99.90;;;;;;4904891;29;20331;-78
2023/12/19 03:44:53;;;;;;;22.38;13.55;;;0.00;99.90;;;;;;4889218;29;20033;-77
2023/12/19 03:47:22;;;;;;;21.48;14.32;;;0.00;99.90;;;;;;4887409;29;20193;-79
2023/12/19 03:49:50;;;;;;;23.10;14.27;;;0.00;99.90;;;;;;4893835;29;20218;-77
2023/12/19 03:52:17;;;;;;;21.42;14.02;;;0.10;99.90;;;;;;4907006;29;20029;-77
2023/12/19 03:54:45;;;;;;;20.42;13.18;;;0.00;99.90;;;;;;4889739;29;20177;-77
2023/12/19 03:57:14;;;;;;;21.13;13.40;;;0.00;99.90;;;;;;4906962;29;20326;-77
2023/12/19 03:59:44;;;;;;;21.23;14.25;;;0.00;99.90;;;;;;4906206;29;20036;-78
2023/12/19 04:02:14;;;;;;;21.65;13.13;;;-0.10;99.90;;;;;;4886808;29;20033;-76
2023/12/19 04:04:48;;;;;;;22.65;14.43;;;-0.10;99.90;;;;;;4887796;29;20130;-77
2023/12/19 04:07:13;;;;;;;20.05;13.48;;;-0.10;99.90;;;;;;4888109;29;20065;-77
2023/12/19 04:09:42;;;;;;;20.50;13.57;;;-0.10;99.90;;;;;;4888046;29;20033;-77
2023/12/19 04:12:19;;;;;;;25.58;13.88;;;-0.10;99.90;;;;;;4888470;29;20037;-76
2023/12/19 04:14:46;;;;;;;17.80;12.80;;;-0.20;99.90;;;;;;4873474;29;20072;-77
2023/12/19 04:17:13;;;;;;;22.17;12.77;;;-0.20;99.90;;;;;;4892138;29;20041;-76
2023/12/19 04:19:42;;;;;;;17.80;12.07;;;-0.20;99.90;;;;;;4898576;29;20024;-77
2023/12/19 04:22:16;;;;;;;22.23;14.00;;;-0.20;99.90;;;;;;4910834;29;20112;-76
2023/12/19 04:24:51;;;;;;;22.23;13.00;;;-0.20;99.90;;;;;;4909222;29;20130;-76
2023/12/19 04:27:35;;;;;;;20.92;12.93;;;-0.20;99.90;;;;;;4910886;29;20033;-76
2023/12/19 04:30:30;;;;;;;20.90;12.70;;;-0.20;99.90;;;;;;4910537;29;20036;-77
2023/12/19 04:32:55;;;;;;;22.10;12.80;;;-0.20;99.90;;;;;;4910069;29;20331;-76
2023/12/19 04:35:30;;;;;;;20.55;13.25;;;-0.10;99.90;;;;;;4909132;29;20084;-77
2023/12/19 04:38:22;;;;;;;22.40;13.23;;;-0.10;99.90;;;;;;4906894;29;20064;-76
2023/12/19 04:40:59;;;;;;;20.48;11.55;;;-0.20;99.90;;;;;;4821640;29;20551;-76
2023/12/19 04:43:25;;;;;;;20.77;11.73;;;-0.20;99.90;;;;;;4852698;29;20038;-77
2023/12/19 04:48:37;;;;;;;16.42;11.13;;;-0.20;99.90;;;;;;4843112;29;20090;-76
2023/12/19 04:51:26;;;;;;;18.27;11.75;;;-0.20;99.90;;;;;;4858129;29;20038;-78
2023/12/19 04:53:56;;;;;;;19.90;10.98;;;-0.30;99.90;;;;;;4814681;29;20138;-77
2023/12/19 04:56:22;;;;;;;16.73;10.85;;;-0.30;99.90;;;;;;4898067;29;20068;-77
2023/12/19 04:59:14;;;;;;;18.10;11.57;;;-0.30;99.90;;;;;;4892681;29;20040;-79
2023/12/19 05:01:44;;;;;;;18.00;11.70;;;-0.20;99.90;;;;;;4851682;29;20145;-77
2023/12/19 05:04:10;;;;;;;19.25;12.27;;;-0.20;99.90;;;;;;4837094;29;20054;-76
2023/12/19 05:06:55;;;;;;;19.73;11.35;;;-0.30;99.90;;;;;;4851682;29;20034;-77
2023/12/19 05:09:21;;;;;;;17.98;11.05;;;-0.30;99.90;;;;;;4821604;29;20312;-78
2023/12/19 05:11:50;;;;;;;20.30;11.68;;;-0.30;99.90;;;;;;4854537;29;20041;-77
2023/12/19 05:14:15;;;;;;;20.55;11.65;;;-0.40;99.90;;;;;;4910058;29;20087;-76
2023/12/19 05:17:06;;;;;;;17.77;11.00;;;-0.30;99.90;;;;;;4908848;29;20092;-76
2023/12/19 05:19:55;;;;;;;19.13;11.93;;;-0.40;99.90;;;;;;4875948;29;20032;-78
2023/12/19 05:22:23;;;;;;;23.08;12.85;;;-0.30;99.90;;;;;;4909603;29;20080;-78
2023/12/19 05:24:55;;;;;;;18.35;11.40;;;-0.30;99.90;;;;;;4876353;29;20024;-78
2023/12/19 05:27:21;;;;;;;17.90;11.05;;;-0.30;99.90;;;;;;4904210;29;20025;-78
2023/12/19 05:29:54;;;;;;;20.67;11.43;;;-0.40;99.90;;;;;;4873322;29;20324;-76
2023/12/19 05:32:23;;;;;;;25.20;12.45;;;-0.40;99.90;;;;;;4890912;29;20060;-76
2023/12/19 05:34:51;;;;;;;19.00;11.05;;;-0.30;99.90;;;;;;4890098;29;20107;-77
2023/12/19 05:37:28;;;;;;;20.25;11.15;;;-0.40;99.90;;;;;;4874264;29;20057;-77
2023/12/19 05:39:57;;;;;;;18.45;11.35;;;-0.40;99.90;;;;;;4890627;29;20029;-77
2023/12/19 05:42:41;;;;;;;19.23;10.43;;;-0.50;99.90;;;;;;4890347;29;20060;-79
2023/12/19 05:45:10;;;;;;;21.65;10.88;;;-0.50;99.90;;;;;;4906942;29;20028;-76
2023/12/19 05:47:55;;;;;;;17.80;9.93;;;-0.50;99.90;;;;;;4907990;29;20039;-80
2023/12/19 05:50:21;;;;;;;23.02;10.98;;;-0.50;99.90;;;;;;4909710;29;20281;-79
2023/12/19 05:52:53;;;;;;;21.65;11.20;;;-0.60;99.90;;;;;;4891976;29;20408;-79
2023/12/19 05:55:24;;;;;;;21.95;12.13;;;-0.60;99.90;;;;;;4892953;29;20028;-79
2023/12/19 05:57:50;;;;;;;18.38;11.32;;;-0.60;99.90;;;;;;4908764;29;20032;-77
2023/12/19 06:00:22;;;;;;;18.63;10.85;;;-0.60;99.90;;;;;;4892998;29;20055;-79
2023/12/19 06:02:59;;;;;;;23.33;13.25;;;-0.60;99.90;;;;;;4873677;29;20029;-77
2023/12/19 06:05:39;;;;;;;21.17;12.85;;;-0.70;99.90;;;;;;4889136;29;20033;-77
2023/12/19 06:08:07;;;;;;;20.75;12.02;;;-0.70;99.90;;;;;;4890103;29;20044;-77
2023/12/19 06:10:36;;;;;;;24.83;13.25;;;-0.60;99.90;;;;;;4889760;29;20037;-76
2023/12/19 06:13:18;;;;;;;24.63;12.25;;;-0.60;99.90;;;;;;4889908;29;20036;-74
2023/12/19 06:15:43;;;;;;;23.52;13.07;;;-0.60;99.90;;;;;;4872774;29;20292;-76
2023/12/19 06:18:09;;;;;;;23.20;13.07;;;-0.60;99.90;;;;;;4900773;29;20047;-75
2023/12/19 06:20:35;;;;;;;23.67;12.73;;;-0.70;99.90;;;;;;4891327;29;20314;-78
2023/12/19 06:23:03;;;;;;;25.00;13.13;;;-0.70;99.90;;;;;;4908868;29;20036;-76
2023/12/19 06:25:32;;;;;;;20.08;11.90;;;-0.70;99.90;;;;;;4907972;29;20145;-76
2023/12/19 06:28:10;;;;;;;20.67;12.45;;;-0.70;99.90;;;;;;4907480;29;20319;-78
2023/12/19 06:30:36;;;;;;;20.48;12.52;;;-0.70;99.90;;;;;;4907730;29;20043;-78
2023/12/19 06:33:08;;;;;;;18.60;11.35;;;-0.80;99.90;;;;;;4908076;29;20342;-75
2023/12/19 06:35:33;;;;;;;18.50;11.73;;;-0.70;99.90;;;;;;4903275;29;20073;-78
2023/12/19 06:38:03;;;;;;;18.05;10.43;;;-0.80;99.90;;;;;;4886838;29;20100;-77
2023/12/19 06:40:29;;;;;;;20.33;12.32;;;-0.80;99.90;;;;;;4888838;29;20037;-77
2023/12/19 06:42:55;;;;;;;21.02;12.07;;;-0.80;99.90;;;;;;4889451;29;20385;-76
2023/12/19 06:45:26;;;;;;;24.55;14.10;;;-0.70;99.90;;;;;;4889648;29;20282;-78
2023/12/19 06:47:52;;;;;;;25.63;13.15;;;-0.70;99.90;;;;;;4872116;29;20029;-78
2023/12/19 06:50:18;;;;;;;17.42;10.98;;;-0.80;99.90;;;;;;4882873;29;20251;-76
2023/12/19 06:52:50;;;;;;;19.00;12.02;;;-0.80;99.90;;;;;;4896349;29;20033;-76
2023/12/19 06:55:16;;;;;;;19.38;11.57;;;-0.70;99.90;;;;;;4857684;29;20240;-80
2023/12/19 06:57:50;;;;;;;18.65;11.57;;;-0.70;99.90;;;;;;4888696;29;20080;-77
2023/12/19 07:00:17;;;;;;;22.15;11.57;;;-0.70;99.90;;;;;;4889097;29;20198;-79
2023/12/19 07:02:45;;;;;;;22.80;12.02;;;-0.60;99.90;;;;;;4867974;29;20335;-79
2023/12/19 07:05:40;;;;;;;18.52;11.52;;;-0.60;99.90;;;;;;4887700;29;20091;-83
2023/12/19 07:08:09;;;;;;;19.75;11.10;;;-0.60;99.90;;;;;;4884499;29;20032;-76
2023/12/19 07:10:34;;;;;;;18.20;11.60;;;-0.50;99.90;;;;;;4902890;29;20065;-78
2023/12/19 07:13:26;;;;;;;17.83;11.50;;;-0.50;99.90;;;;;;4906737;29;20029;-78
2023/12/19 07:16:01;;;;;;;18.33;11.98;;;-0.60;99.90;;;;;;4890323;29;20052;-78
2023/12/19 07:18:33;;;;;;;18.85;11.10;;;-0.50;99.90;;;;;;4907670;29;20041;-79
2023/12/19 07:21:25;;;;;;;19.23;11.57;;;-0.50;99.90;;;;;;4907520;29;20084;-78
2023/12/19 07:24:20;;;;;;;19.27;11.75;;;-0.50;99.90;;;;;;4893343;29;20069;-78
2023/12/19 07:27:11;;;;;;;20.63;12.02;;;-0.50;99.90;;;;;;4888746;29;20044;-76
2023/12/19 07:29:40;;;;;;;19.13;11.38;;;-0.50;99.90;;;;;;4844770;29;20132;-77
2023/12/19 07:32:34;;;;;;;19.55;11.75;;;-0.50;99.90;;;;;;4849297;29;20081;-78
2023/12/19 07:34:59;;;;;;;21.55;12.02;;;-0.60;99.90;;;;;;4886795;29;20044;-78
2023/12/19 07:40:15;;;;;;;15.57;9.27;;;-0.50;99.90;;;;;;4849774;29;20046;-77
2023/12/19 07:42:53;;;;;;;20.67;12.85;;;-0.50;99.90;;;;;;4871422;29;20064;-78
2023/12/19 07:45:28;;;;;;;24.98;12.38;;;-0.50;99.90;;;;;;4907280;29;20020;-78
2023/12/19 07:47:54;;;;;;;19.10;11.57;;;-0.40;99.90;;;;;;4889968;29;20087;-77
2023/12/19 07:53:13;;;;;;;23.33;13.55;;;-0.20;99.90;;;;;;4869897;29;20044;-78
2023/12/19 07:55:42;;;;;;;21.48;11.85;;;-0.20;99.90;;;;;;4906498;29;20040;-77
2023/12/19 07:58:12;;;;;;;23.30;12.65;;;-0.10;99.90;;;;;;4888881;29;20025;-78
2023/12/19 08:01:03;;;;;;;22.95;13.25;;;0.00;99.90;;;;;;4894186;29;20099;-78
2023/12/19 08:03:33;;;;;;;23.23;13.60;;;0.10;99.90;;;;;;4906248;29;20025;-78
2023/12/19 08:06:05;;;;;;;25.35;13.60;;;0.10;99.90;;;;;;4906898;29;20064;-78
2023/12/19 08:08:35;;;;;;;23.77;13.25;;;0.20;99.90;;;;;;4877239;29;20116;-76
2023/12/19 08:11:30;;;;;;;22.60;13.23;;;0.30;99.90;;;;;;4871795;29;20316;-77
2023/12/19 08:14:19;;;;;;;25.98;13.18;;;0.40;99.90;;;;;;4831305;29;20089;-77
2023/12/19 08:16:52;;;;;;;22.48;12.95;;;0.40;99.90;;;;;;4830428;29;20074;-76
2023/12/19 08:19:22;;;;;;;26.25;13.15;;;0.50;99.90;;;;;;4877788;29;20312;-79
2023/12/19 08:21:58;;;;;;;30.75;13.18;;;0.50;99.90;;;;;;4906470;29;20048;-79
2023/12/19 08:24:29;;;;;;;20.00;12.27;;;0.50;99.90;;;;;;4890160;29;20024;-79
2023/12/19 08:26:55;;;;;;;21.83;13.00;;;0.50;99.90;;;;;;4905134;29;20275;-78
2023/12/19 08:29:24;;;;;;;21.77;12.93;;;0.60;99.90;;;;;;4907198;29;20066;-77
2023/12/19 08:31:53;;;;;;;21.65;12.63;;;0.70;99.90;;;;;;4907482;29;20033;-77
2023/12/19 08:34:19;;;;;;;22.73;12.77;;;0.70;99.90;;;;;;4897150;29;20037;-76
2023/12/19 08:36:47;;;;;;;25.20;14.00;;;0.80;99.90;;;;;;4888020;29;20028;-79
2023/12/19 08:39:14;;;;;;;23.13;13.10;;;0.80;99.90;;;;;;4888294;29;20033;-76
2023/12/19 08:41:45;;;;;;;29.10;14.38;;;0.90;99.90;;;;;;4885290;29;20327;-79
2023/12/19 08:44:34;;;;;;;24.48;13.20;;;0.90;99.90;;;;;;4872009;29;20220;-78
2023/12/19 08:47:11;;;;;;;22.95;13.38;;;1.00;99.90;;;;;;4887875;29;20045;-78
2023/12/19 08:49:43;;;;;;;27.02;12.73;;;1.00;99.90;;;;;;4892742;29;20311;-78
2023/12/19 08:52:19;;;;;;;22.75;12.85;;;1.10;99.90;;;;;;4902561;29;20100;-77
2023/12/19 08:54:53;;;;;;;19.55;12.80;;;1.10;99.90;;;;;;4889914;29;20044;-78
2023/12/19 08:57:22;;;;;;;22.17;12.38;;;1.10;99.90;;;;;;4907135;29;20211;-78
2023/12/19 09:00:03;;;;;;;21.23;12.65;;;1.20;99.90;;;;;;4907178;29;20041;-78
2023/12/19 09:03:14;;;;;;;21.75;12.38;;;1.20;99.90;;;;;;4910107;29;20238;-79
2023/12/19 09:05:19;;;;;;;21.60;12.38;;;1.30;99.90;;;;;;4900649;29;20112;-77
2023/12/19 09:07:53;;;;;;;;;;;1.30;99.90;;;;;;4910205;29;20073;-78
2023/12/19 09:10:22;;;;;;;24.42;13.13;;;1.40;99.90;;;;;;4902655;29;20055;-78
2023/12/19 09:13:00;;;;;;;22.75;11.70;;;1.50;99.90;;;;;;4890462;29;20153;-79
2023/12/19 09:15:26;;;;;;;22.35;11.80;;;1.60;99.90;;;;;;4873252;29;20044;-77
2023/12/19 09:17:59;;;;;;;23.75;12.30;;;1.80;99.90;;;;;;4888926;29;20056;-78
2023/12/19 09:20:25;;;;;;;20.88;11.35;;;1.90;99.90;;;;;;4890730;29;20032;-78
2023/12/19 09:22:51;;;;;;;29.63;12.95;;;2.10;99.90;;;;;;4858361;29;20399;-76
2023/12/19 09:25:19;;;;;;;19.90;10.82;;;2.20;99.90;;;;;;4890952;29;20048;-77
2023/12/19 09:27:45;;;;;;;21.92;11.40;;;2.20;99.90;;;;;;4892398;29;20033;-76
2023/12/19 09:30:16;;;;;;;31.25;11.55;;;2.40;99.90;;;;;;4892876;29;20024;-75
2023/12/19 09:32:45;;;;;;;21.27;11.68;;;2.50;99.90;;;;;;4909608;29;20024;-77
2023/12/19 09:35:16;;;;;;;19.05;10.95;;;2.60;99.90;;;;;;4909283;29;20063;-77
2023/12/19 09:37:48;;;;;;;17.45;10.50;;;2.60;99.90;;;;;;4909154;29;20029;-77
2023/12/19 09:40:27;;;;;;;17.80;10.30;;;2.60;99.90;;;;;;4909534;29;20021;-77
2023/12/19 09:43:00;;;;;;;17.33;10.30;;;2.70;99.90;;;;;;4908200;29;20048;-76
2023/12/19 09:45:26;;;;;;;17.10;10.73;;;2.80;99.90;;;;;;4904335;29;20028;-76
2023/12/19 09:48:09;;;;;;;17.42;11.00;;;3.00;99.90;;;;;;4908465;29;20028;-78
2023/12/19 09:50:42;;;;;;;17.50;10.65;;;3.00;99.90;;;;;;4905373;29;20062;-77
2023/12/19 09:53:10;;;;;;;17.80;11.32;;;3.10;99.90;;;;;;4884469;29;20264;-78
2023/12/19 09:55:42;;;;;;;18.40;10.80;;;3.20;99.90;;;;;;4908263;29;20036;-78
2023/12/19 09:58:18;;;;;;;15.65;10.40;;;3.20;99.90;;;;;;4875106;29;20088;-77
2023/12/19 10:00:47;;;;;;;16.58;10.38;;;3.10;99.90;;;;;;4873091;29;20041;-76
2023/12/19 10:03:33;;;;;;;17.52;11.07;;;3.00;99.90;;;;;;4889974;29;20041;-77
2023/12/19 10:05:59;;;;;;;19.17;11.98;;;2.90;99.90;;;;;;4889736;29;20080;-75
2023/12/19 10:08:24;;;;;;;17.23;10.43;;;2.90;99.90;;;;;;4873567;29;20236;-76
2023/12/19 10:11:03;;;;;;;16.67;10.68;;;2.90;99.90;;;;;;4889589;29;20029;-78
2023/12/19 10:13:35;;;;;;;16.60;10.77;;;2.90;99.90;;;;;;4892511;29;20048;-77
2023/12/19 10:16:17;;;;;;;18.73;11.60;;;3.00;99.90;;;;;;4872618;29;20060;-77
2023/12/19 10:18:44;;;;;;;24.77;12.35;;;3.00;99.90;;;;;;4890204;29;20048;-79
2023/12/19 10:21:13;;;;;;;20.92;12.10;;;2.90;99.90;;;;;;4889757;29;20045;-78
2023/12/19 10:23:42;;;;;;;21.25;11.02;;;3.00;99.90;;;;;;4889390;29;20278;-77
2023/12/19 10:26:09;;;;;;;16.67;10.43;;;3.00;99.90;;;;;;4889774;29;20037;-76
2023/12/19 10:28:35;;;;;;;19.10;10.77;;;2.90;99.90;;;;;;4888445;29;20033;-77
2023/12/19 10:31:15;;;;;;;17.17;10.80;;;2.80;99.90;;;;;;4872919;29;20300;-78
2023/12/19 10:33:50;;;;;;;18.23;11.15;;;2.80;99.90;;;;;;4888786;29;20056;-77
2023/12/19 10:36:35;;;;;;;17.98;11.77;;;2.60;99.90;;;;;;4902007;29;20088;-76
2023/12/19 10:39:07;;;;;;;19.45;11.30;;;2.70;99.90;;;;;;4889459;29;20076;-77
2023/12/19 10:41:34;;;;;;;19.85;11.18;;;2.60;99.90;;;;;;4904490;29;20046;-77
2023/12/19 10:44:01;;;;;;;15.52;10.20;;;2.50;99.90;;;;;;4907877;29;20024;-77
2023/12/19 10:46:29;;;;;;;18.88;11.27;;;2.40;99.90;;;;;;4872843;29;20025;-76
2023/12/19 10:48:56;;;;;;;;;;;2.30;99.90;;;;;;4889716;29;20413;-76
2023/12/19 10:51:36;;;;;;;17.08;9.45;;;2.30;99.90;;;;;;4907386;29;20121;-77
2023/12/19 10:54:15;;;;;;;18.52;10.75;;;2.40;99.90;;;;;;4907818;29;20037;-77
2023/12/19 10:57:06;;;;;;;17.17;9.88;;;2.40;99.90;;;;;;4907254;29;20029;-77
2023/12/19 10:59:58;;;;;;;20.70;10.10;;;2.30;99.90;;;;;;4891095;29;20040;-76
2023/12/19 11:02:45;;;;;;;18.48;10.77;;;2.50;99.90;;;;;;4891272;29;20107;-76
2023/12/19 11:05:39;;;;;;;21.80;10.93;;;2.60;99.90;;;;;;4907946;29;20270;-76
2023/12/19 11:08:26;;;;;;;17.05;10.05;;;2.80;99.90;;;;;;4871788;29;20037;-76
2023/12/19 11:11:26;;;;;;;14.63;9.73;;;2.90;99.90;;;;;;4888871;29;20044;-77
2023/12/19 11:13:56;;;;;;;17.63;9.48;;;3.00;99.90;;;;;;4888481;29;20037;-76
2023/12/19 11:16:36;;;;;;;16.38;9.65;;;3.30;99.90;;;;;;4887529;29;20097;-76
2023/12/19 11:19:45;;;;;;;18.70;10.25;;;3.50;99.90;;;;;;4888946;29;20327;-77
2023/12/19 11:22:32;;;;;;;13.68;8.57;;;4.10;99.90;;;;;;4819311;29;20099;-77
2023/12/19 11:25:10;;;;;;;13.07;8.27;;;5.10;99.90;;;;;;4816293;29;20038;-77
2023/12/19 11:27:45;;;;;;;12.82;8.73;;;6.00;99.90;;;;;;4831262;29;20038;-78
2023/12/19 11:30:40;;;;;;;13.80;8.65;;;7.10;99.90;;;;;;4831281;29;20165;-77
2023/12/19 11:33:07;;;;;;;11.07;7.95;;;8.00;97.70;;;;;;4831621;29;20050;-78
2023/12/19 11:35:33;;;;;;;12.90;8.50;;;8.00;96.00;;;;;;4830577;29;20050;-77
2023/12/19 11:38:30;;;;;;;12.95;8.18;;;8.30;95.50;;;;;;4831526;29;20045;-76
2023/12/19 11:40:58;;;;;;;10.73;8.02;;;8.90;94.50;;;;;;4830992;29;20264;-77
2023/12/19 11:43:35;;;;;;;12.25;8.02;;;9.10;93.20;;;;;;4831300;29;20113;-76
2023/12/19 11:46:15;;;;;;;12.07;8.68;;;8.90;92.70;;;;;;4815806;29;20083;-76
2023/12/19 11:48:51;;;;;;;11.48;8.02;;;9.10;92.50;;;;;;4815161;29;20125;-76
2023/12/19 11:51:41;;;;;;;11.90;8.70;;;9.00;91.90;;;;;;4815750;29;20034;-77
2023/12/19 11:54:10;;;;;;;13.15;8.27;;;8.80;91.80;;;;;;4800731;29;20026;-76
2023/12/19 11:56:40;;;;;;;12.27;8.07;;;8.50;92.70;;;;;;4882875;29;20045;-77
2023/12/19 11:59:13;;;;;;;13.02;8.30;;;8.90;92.70;;;;;;4902540;29;20099;-77
2023/12/19 12:01:44;;;;;;;10.65;7.68;;;9.10;91.70;;;;;;4889961;29;20323;-76
2023/12/19 12:04:13;;;;;;;10.70;7.65;;;10.20;91.30;;;;;;4890550;29;20036;-75
2023/12/19 12:06:39;;;;;;;13.57;8.45;;;11.40;88.80;;;;;;4890107;29;20306;-77
2023/12/19 12:09:07;;;;;;;11.98;7.70;;;11.80;84.80;;;;;;4906585;29;20052;-75
2023/12/19 12:11:48;;;;;;;10.93;8.40;;;11.70;86.60;;;;;;4905912;29;20029;-76
2023/12/19 12:14:15;;;;;;;11.77;7.93;;;11.80;83.90;;;;;;4889022;29;20041;-75
2023/12/19 12:16:42;;;;;;;10.68;8.27;;;11.30;85.00;;;;;;4870402;29;20052;-75
2023/12/19 12:19:16;;;;;;;11.35;8.25;;;11.30;85.00;;;;;;4890175;29;20219;-76
2023/12/19 12:21:51;;;;;;;11.43;8.45;;;10.40;86.20;;;;;;4873974;29;20234;-75
2023/12/19 12:24:23;;;;;;;12.02;8.80;;;9.40;89.50;;;;;;4906665;29;20036;-77
2023/12/19 12:27:06;;;;;;;11.68;8.50;;;8.50;90.60;;;;;;4906434;29;20060;-77
2023/12/19 12:29:36;;;;;;;12.27;8.43;;;7.70;92.20;;;;;;4906383;29;20048;-77
2023/12/19 12:32:03;;;;;;;14.43;9.32;;;7.20;93.20;;;;;;4904167;29;20060;-75
2023/12/19 12:34:32;;;;;;;12.20;8.73;;;6.80;93.90;;;;;;4890049;29;20308;-76
2023/12/19 12:36:58;;;;;;;13.85;8.57;;;6.60;94.10;;;;;;4910800;29;20284;-77
2023/12/19 12:39:24;;;;;;;12.70;7.72;;;6.10;95.00;;;;;;4910847;29;20033;-76
2023/12/19 12:41:49;;;;;;;14.93;9.00;;;5.80;95.40;;;;;;4909861;29;20044;-76
2023/12/19 12:44:15;;;;;;;16.27;9.20;;;5.70;96.00;;;;;;4910726;29;20025;-75
2023/12/19 12:46:47;;;;;;;13.23;8.65;;;5.60;96.40;;;;;;4909851;29;20036;-76
2023/12/19 12:49:20;;;;;;;14.15;8.43;;;5.30;97.00;;;;;;4902529;29;20311;-77
2023/12/19 12:51:47;;;;;;;12.60;7.63;;;5.20;97.20;;;;;;4877457;29;20095;-77
2023/12/19 12:54:20;;;;;;;12.23;8.25;;;5.00;97.70;;;;;;4899326;29;20625;-77
2023/12/19 12:56:46;;;;;;;14.52;8.90;;;5.10;98.30;;;;;;4886516;29;20037;-77
2023/12/19 12:59:24;;;;;;;15.30;8.85;;;5.20;98.00;;;;;;4894235;29;20020;-77
2023/12/19 13:01:51;;;;;;;14.00;8.20;;;5.10;97.90;;;;;;4892838;29;20115;-78
2023/12/19 13:04:18;;;;;;;16.20;9.18;;;5.10;98.20;;;;;;4910036;29;20055;-78
2023/12/19 13:06:45;;;;;;;14.70;8.57;;;5.10;98.10;;;;;;4909905;29;20013;-77
2023/12/19 13:09:19;;;;;;;14.17;9.00;;;5.10;98.30;;;;;;4908797;29;20045;-78
2023/12/19 13:11:53;;;;;;;13.20;8.65;;;5.00;98.00;;;;;;4909019;29;20044;-77
2023/12/19 13:14:19;;;;;;;12.95;7.85;;;4.80;98.60;;;;;;4909959;29;20025;-77
2023/12/19 13:16:45;;;;;;;14.43;7.97;;;4.90;99.10;;;;;;4892248;29;20083;-77
2023/12/19 13:19:11;;;;;;;12.38;7.97;;;4.90;99.40;;;;;;4877552;29;20084;-76